createdAt,value
2023-02-19T00:01:50.236Z,6.50
2023-02-19T00:04:21.967Z,6.50
2023-02-19T00:06:50.609Z,6.50
2023-02-19T00:09:20.282Z,6.40
2023-02-19T00:11:48.696Z,6.40
2023-02-19T00:14:19.002Z,6.40
2023-02-19T00:16:47.714Z,6.40
2023-02-19T00:19:17.911Z,6.40
2023-02-19T00:21:47.555Z,6.40
2023-02-19T00:24:16.353Z,6.40
2023-02-19T00:26:45.428Z,6.40
2023-02-19T00:29:16.548Z,6.50
2023-02-19T00:31:45.315Z,6.50
2023-02-19T00:34:14.625Z,6.40
2023-02-19T00:36:44.123Z,6.40
2023-02-19T00:39:16.253Z,6.40
2023-02-19T00:41:44.848Z,6.40
2023-02-19T00:44:14.079Z,6.30
2023-02-19T00:46:43.906Z,6.30
2023-02-19T00:49:16.724Z,6.20
2023-02-19T00:51:44.839Z,6.20
2023-02-19T00:54:14.983Z,6.20
2023-02-19T00:56:43.001Z,6.30
2023-02-19T00:59:11.271Z,6.20
2023-02-19T01:01:39.353Z,6.30
2023-02-19T01:04:07.538Z,6.20
2023-02-19T01:06:35.866Z,6.20
2023-02-19T01:09:04.507Z,6.20
2023-02-19T01:11:33.991Z,6.10
2023-02-19T01:14:03.487Z,6.10
2023-02-19T01:16:31.958Z,6.10
2023-02-19T01:19:00.663Z,6.00
2023-02-19T01:21:30.339Z,6.00
2023-02-19T01:24:00.688Z,6.00
2023-02-19T01:26:31.562Z,6.00
2023-02-19T01:29:01.480Z,6.00
2023-02-19T01:31:30.455Z,5.90
2023-02-19T01:34:00.763Z,5.90
2023-02-19T01:36:29.687Z,5.80
2023-02-19T01:39:00.483Z,5.80
2023-02-19T01:41:28.468Z,5.80
2023-02-19T01:43:59.269Z,5.80
2023-02-19T01:46:30.021Z,5.70
2023-02-19T01:49:01.086Z,5.70
2023-02-19T01:51:30.676Z,5.80
2023-02-19T01:54:01.807Z,5.90
2023-02-19T01:56:32.036Z,5.90
2023-02-19T01:59:01.851Z,5.90
2023-02-19T02:01:31.196Z,5.90
2023-02-19T02:03:59.609Z,5.80
2023-02-19T02:06:31.419Z,5.80
2023-02-19T02:09:21.333Z,5.80
2023-02-19T02:11:51.093Z,5.90
2023-02-19T02:14:22.760Z,5.90
2023-02-19T02:16:58.558Z,5.90
2023-02-19T02:19:42.481Z,5.80
2023-02-19T02:22:15.548Z,5.70
2023-02-19T02:25:16.157Z,5.60
2023-02-19T02:27:57.275Z,5.60
2023-02-19T02:30:34.440Z,5.60
2023-02-19T02:33:12.418Z,5.60
2023-02-19T02:35:45.244Z,5.70
2023-02-19T02:38:14.694Z,5.60
2023-02-19T02:40:46.033Z,5.50
2023-02-19T02:43:14.654Z,5.50
2023-02-19T02:45:44.354Z,5.30
2023-02-19T02:48:25.406Z,5.50
2023-02-19T02:50:57.239Z,5.30
2023-02-19T02:53:47.032Z,5.30
2023-02-19T02:56:16.355Z,5.10
2023-02-19T02:58:45.499Z,4.90
2023-02-19T03:01:37.648Z,5.10
2023-02-19T03:04:11.365Z,5.30
2023-02-19T03:06:40.253Z,5.40
2023-02-19T03:09:12.623Z,5.50
2023-02-19T03:12:02.615Z,5.60
2023-02-19T03:14:53.658Z,5.50
2023-02-19T03:17:47.552Z,5.40
2023-02-19T03:20:18.797Z,5.40
2023-02-19T03:22:49.459Z,5.40
2023-02-19T03:25:38.769Z,5.40
2023-02-19T03:28:11.101Z,5.30
2023-02-19T03:30:42.675Z,5.30
2023-02-19T03:33:15.807Z,5.40
2023-02-19T03:35:47.520Z,5.30
2023-02-19T03:38:19.526Z,5.40
2023-02-19T03:40:55.549Z,5.40
2023-02-19T03:43:34.752Z,5.30
2023-02-19T03:46:09.452Z,5.30
2023-02-19T03:48:42.086Z,5.40
2023-02-19T03:51:26.732Z,5.30
2023-02-19T03:54:03.377Z,5.20
2023-02-19T03:56:36.456Z,5.20
2023-02-19T03:59:13.816Z,5.20
2023-02-19T04:01:47.606Z,5.20
2023-02-19T04:04:21.830Z,5.20
2023-02-19T04:06:55.813Z,5.10
2023-02-19T04:09:26.124Z,5.00
2023-02-19T04:11:55.271Z,5.00
2023-02-19T04:14:28.207Z,4.70
2023-02-19T04:17:04.233Z,4.90
2023-02-19T04:19:38.460Z,5.00
2023-02-19T04:22:09.026Z,5.00
2023-02-19T04:24:40.770Z,5.00
2023-02-19T04:27:10.822Z,5.00
2023-02-19T04:29:39.371Z,5.00
2023-02-19T04:32:07.754Z,5.00
2023-02-19T04:34:37.121Z,5.00
2023-02-19T04:37:05.361Z,4.90
2023-02-19T04:39:33.563Z,4.90
2023-02-19T04:42:01.616Z,4.90
2023-02-19T04:44:29.745Z,4.90
2023-02-19T04:46:57.715Z,4.90
2023-02-19T04:49:25.680Z,4.90
2023-02-19T04:51:55.020Z,4.90
2023-02-19T04:54:23.148Z,4.90
2023-02-19T04:56:51.104Z,4.90
2023-02-19T04:59:19.506Z,4.90
2023-02-19T05:01:47.628Z,4.80
2023-02-19T05:04:15.757Z,4.90
2023-02-19T05:06:43.752Z,4.90
2023-02-19T05:09:13.190Z,4.90
2023-02-19T05:11:41.163Z,4.90
2023-02-19T05:14:09.332Z,4.90
2023-02-19T05:16:37.297Z,4.90
2023-02-19T05:19:05.297Z,4.80
2023-02-19T05:21:33.294Z,4.90
2023-02-19T05:24:01.234Z,4.90
2023-02-19T05:26:31.259Z,4.90
2023-02-19T05:29:00.544Z,4.90
2023-02-19T05:31:28.955Z,4.90
2023-02-19T05:33:57.357Z,4.80
2023-02-19T05:36:25.512Z,4.60
2023-02-19T05:38:57.048Z,4.70
2023-02-19T05:41:27.250Z,4.70
2023-02-19T05:43:57.858Z,4.80
2023-02-19T05:46:27.914Z,4.80
2023-02-19T05:48:56.658Z,4.80
2023-02-19T05:51:26.456Z,4.70
2023-02-19T05:53:56.493Z,4.70
2023-02-19T05:56:31.329Z,4.70
2023-02-19T05:59:03.877Z,4.70
2023-02-19T06:01:32.143Z,4.70
2023-02-19T06:04:00.181Z,4.70
2023-02-19T06:06:28.850Z,4.80
2023-02-19T06:08:56.859Z,4.80
2023-02-19T06:11:25.821Z,4.70
2023-02-19T06:13:53.956Z,4.80
2023-02-19T06:16:23.627Z,4.80
2023-02-19T06:18:52.214Z,4.80
2023-02-19T06:21:20.843Z,4.80
2023-02-19T06:23:48.929Z,4.90
2023-02-19T06:26:18.937Z,4.90
2023-02-19T06:28:48.146Z,4.80
2023-02-19T06:31:16.739Z,4.30
2023-02-19T06:33:46.524Z,3.90
2023-02-19T06:36:17.901Z,3.70
2023-02-19T06:38:46.435Z,3.50
2023-02-19T06:41:14.904Z,3.60
2023-02-19T06:43:43.454Z,3.70
2023-02-19T06:46:13.193Z,3.90
2023-02-19T06:48:43.382Z,4.10
2023-02-19T06:51:15.489Z,4.00
2023-02-19T06:53:45.974Z,3.90
2023-02-19T06:56:26.450Z,3.90
2023-02-19T06:58:55.670Z,3.90
2023-02-19T07:01:24.229Z,3.70
2023-02-19T07:03:52.630Z,3.70
2023-02-19T07:06:23.525Z,3.70
2023-02-19T07:08:52.540Z,3.70
2023-02-19T07:11:20.663Z,3.80
2023-02-19T07:13:48.955Z,3.90
2023-02-19T07:16:18.135Z,4.20
2023-02-19T07:18:46.194Z,4.30
2023-02-19T07:21:16.519Z,4.50
2023-02-19T07:23:46.933Z,4.70
2023-02-19T07:26:16.703Z,4.70
2023-02-19T07:28:45.757Z,4.90
2023-02-19T07:31:15.626Z,5.10
2023-02-19T07:33:44.711Z,5.20
2023-02-19T07:36:12.795Z,5.30
2023-02-19T07:38:41.069Z,5.40
2023-02-19T07:41:11.358Z,5.50
2023-02-19T07:43:40.129Z,5.50
2023-02-19T07:46:10.298Z,5.60
2023-02-19T07:48:39.062Z,5.60
2023-02-19T07:51:09.340Z,5.60
2023-02-19T07:53:37.604Z,5.70
2023-02-19T07:56:07.959Z,5.70
2023-02-19T07:58:37.288Z,5.70
2023-02-19T08:01:10.470Z,5.70
2023-02-19T08:03:38.416Z,5.70
2023-02-19T08:06:07.481Z,5.70
2023-02-19T08:08:35.618Z,5.70
2023-02-19T08:11:22.634Z,5.60
2023-02-19T08:13:52.971Z,5.60
2023-02-19T08:16:40.698Z,5.60
2023-02-19T08:19:10.825Z,5.70
2023-02-19T08:21:38.957Z,5.70
2023-02-19T08:24:07.521Z,5.80
2023-02-19T08:26:36.182Z,5.80
2023-02-19T08:29:06.384Z,5.90
2023-02-19T08:31:35.208Z,5.90
2023-02-19T08:34:03.264Z,5.70
2023-02-19T08:36:31.295Z,5.60
2023-02-19T08:38:59.257Z,5.30
2023-02-19T08:41:27.450Z,5.20
2023-02-19T08:43:55.539Z,5.10
2023-02-19T08:46:24.986Z,5.20
2023-02-19T08:48:53.168Z,5.30
2023-02-19T08:51:21.152Z,5.50
2023-02-19T08:53:49.283Z,5.60
2023-02-19T08:56:18.673Z,5.70
2023-02-19T08:58:47.004Z,5.70
2023-02-19T09:01:16.612Z,5.80
2023-02-19T09:03:46.045Z,5.90
2023-02-19T09:06:16.802Z,6.00
2023-02-19T09:08:44.956Z,6.10
2023-02-19T09:11:13.662Z,6.20
2023-02-19T09:13:42.158Z,6.30
2023-02-19T09:16:10.158Z,6.40
2023-02-19T09:18:38.189Z,6.40
2023-02-19T09:21:11.097Z,6.40
2023-02-19T09:23:39.511Z,6.50
2023-02-19T09:26:10.146Z,6.50
2023-02-19T09:28:41.504Z,6.60
2023-02-19T09:31:12.689Z,6.60
2023-02-19T09:33:44.461Z,6.60
2023-02-19T09:36:14.708Z,6.60
2023-02-19T09:38:43.517Z,6.70
2023-02-19T09:41:18.065Z,6.70
2023-02-19T09:43:46.303Z,6.70
2023-02-19T09:46:29.014Z,6.70
2023-02-19T09:49:02.165Z,6.70
2023-02-19T09:51:33.270Z,6.80
2023-02-19T09:54:02.550Z,6.80
2023-02-19T09:56:31.036Z,6.80
2023-02-19T09:59:01.017Z,6.90
2023-02-19T10:01:34.430Z,6.90
2023-02-19T10:04:02.521Z,7.00
2023-02-19T10:06:36.292Z,7.00
2023-02-19T10:09:20.554Z,7.10
2023-02-19T10:11:50.355Z,7.10
2023-02-19T10:14:22.791Z,7.20
2023-02-19T10:16:52.759Z,7.20
2023-02-19T10:19:20.967Z,7.30
2023-02-19T10:21:50.360Z,7.30
2023-02-19T10:24:24.027Z,7.40
2023-02-19T10:26:52.338Z,7.40
2023-02-19T10:29:21.672Z,7.40
2023-02-19T10:31:49.951Z,7.50
2023-02-19T10:34:22.421Z,7.50
2023-02-19T10:36:53.577Z,7.60
2023-02-19T10:39:42.857Z,7.60
2023-02-19T10:42:22.153Z,7.70
2023-02-19T10:44:54.816Z,7.80
2023-02-19T10:47:25.244Z,7.80
2023-02-19T10:49:56.452Z,7.90
2023-02-19T10:52:28.224Z,7.90
2023-02-19T10:54:58.593Z,8.00
2023-02-19T10:57:33.404Z,8.10
2023-02-19T11:00:03.849Z,8.20
2023-02-19T11:02:32.775Z,8.30
2023-02-19T11:05:17.185Z,8.30
2023-02-19T11:07:49.215Z,8.40
2023-02-19T11:10:29.375Z,8.50
2023-02-19T11:13:00.213Z,8.60
2023-02-19T11:15:31.416Z,8.60
2023-02-19T11:18:04.913Z,8.60
2023-02-19T11:20:33.655Z,8.70
2023-02-19T11:23:11.694Z,8.80
2023-02-19T11:25:47.024Z,8.90
2023-02-19T11:28:28.290Z,9.00
2023-02-19T11:30:56.321Z,9.00
2023-02-19T11:33:31.886Z,9.10
2023-02-19T11:36:17.082Z,9.10
2023-02-19T11:38:46.440Z,9.20
2023-02-19T11:41:21.483Z,9.30
2023-02-19T11:44:05.887Z,9.30
2023-02-19T11:46:42.676Z,9.40
2023-02-19T11:49:22.272Z,9.50
2023-02-19T11:52:06.394Z,9.50
2023-02-19T11:54:48.668Z,9.60
2023-02-19T11:57:28.608Z,9.70
2023-02-19T12:00:03.044Z,9.80
2023-02-19T12:02:54.171Z,9.90
2023-02-19T12:05:34.865Z,10.00
2023-02-19T12:08:29.804Z,10.00
2023-02-19T12:11:24.508Z,10.00
2023-02-19T12:14:05.627Z,10.10
2023-02-19T12:16:41.896Z,10.20
2023-02-19T12:19:26.087Z,10.20
2023-02-19T12:22:10.495Z,10.30
2023-02-19T12:24:56.633Z,10.40
2023-02-19T12:27:41.084Z,10.40
2023-02-19T12:30:35.187Z,10.50
2023-02-19T12:33:36.230Z,10.50
2023-02-19T12:36:11.856Z,10.60
2023-02-19T12:38:44.641Z,10.70
2023-02-19T12:41:31.610Z,10.70
2023-02-19T12:44:06.750Z,10.80
2023-02-19T12:46:39.547Z,10.80
2023-02-19T12:49:13.194Z,10.90
2023-02-19T12:51:46.586Z,10.90
2023-02-19T12:54:21.029Z,11.00
2023-02-19T12:56:54.915Z,11.00
2023-02-19T12:59:30.276Z,11.00
2023-02-19T13:02:04.629Z,11.00
2023-02-19T13:04:40.932Z,11.00
2023-02-19T13:07:13.749Z,11.10
2023-02-19T13:09:48.057Z,11.10
2023-02-19T13:12:21.873Z,11.10
2023-02-19T13:14:56.475Z,11.20
2023-02-19T13:17:28.638Z,11.20
2023-02-19T13:20:02.236Z,11.20
2023-02-19T13:22:54.118Z,11.30
2023-02-19T13:25:23.491Z,11.20
2023-02-19T13:28:13.873Z,11.30
2023-02-19T13:31:02.526Z,11.30
2023-02-19T13:33:42.180Z,11.30
2023-02-19T13:36:16.346Z,11.40
2023-02-19T13:38:47.031Z,11.40
2023-02-19T13:41:28.443Z,11.50
2023-02-19T13:43:59.239Z,11.50
2023-02-19T13:46:37.036Z,11.50
2023-02-19T13:49:44.637Z,11.50
2023-02-19T13:52:36.933Z,11.50
2023-02-19T13:55:43.050Z,11.50
2023-02-19T13:59:01.563Z,11.50
2023-02-19T14:02:13.125Z,11.60
2023-02-19T14:04:57.009Z,11.60
2023-02-19T14:08:04.153Z,11.60
2023-02-19T14:10:57.733Z,11.70
2023-02-19T14:13:56.663Z,11.70
2023-02-19T14:16:51.337Z,11.80
2023-02-19T14:19:52.648Z,11.80
2023-02-19T14:23:03.381Z,11.70
2023-02-19T14:25:46.492Z,11.70
2023-02-19T14:28:29.934Z,11.80
2023-02-19T14:31:01.098Z,11.80
2023-02-19T14:33:31.738Z,11.80
2023-02-19T14:36:05.788Z,11.80
2023-02-19T14:38:38.546Z,11.80
2023-02-19T14:41:07.835Z,11.70
2023-02-19T14:43:37.501Z,11.70
2023-02-19T14:46:14.082Z,11.70
2023-02-19T14:48:46.299Z,11.60
2023-02-19T14:51:22.293Z,11.60
2023-02-19T14:53:53.236Z,11.60
2023-02-19T14:56:24.224Z,11.50
2023-02-19T14:59:09.118Z,11.50
2023-02-19T15:01:37.222Z,11.40
2023-02-19T15:04:05.925Z,11.40
2023-02-19T15:06:36.586Z,11.30
2023-02-19T15:09:08.281Z,11.30
2023-02-19T15:11:37.146Z,11.30
2023-02-19T15:14:08.027Z,11.30
2023-02-19T15:16:37.693Z,11.20
2023-02-19T15:19:08.689Z,11.20
2023-02-19T15:21:41.012Z,11.10
2023-02-19T15:24:13.536Z,11.10
2023-02-19T15:26:42.958Z,11.10
2023-02-19T15:29:13.311Z,11.00
2023-02-19T15:31:47.238Z,11.00
2023-02-19T15:34:20.069Z,10.90
2023-02-19T15:36:49.354Z,10.90
2023-02-19T15:39:23.182Z,10.90
2023-02-19T15:41:59.910Z,10.90
2023-02-19T15:44:42.451Z,10.90
2023-02-19T15:47:17.569Z,10.80
2023-02-19T15:49:51.751Z,10.80
2023-02-19T15:52:36.005Z,10.70
2023-02-19T15:55:18.868Z,10.70
2023-02-19T15:57:51.681Z,10.60
2023-02-19T16:00:25.331Z,10.60
2023-02-19T16:02:53.439Z,10.60
2023-02-19T16:05:27.143Z,10.50
2023-02-19T16:08:09.965Z,10.50
2023-02-19T16:10:39.732Z,10.40
2023-02-19T16:13:08.593Z,10.40
2023-02-19T16:15:37.272Z,10.40
2023-02-19T16:18:05.816Z,10.40
2023-02-19T16:20:35.856Z,10.40
2023-02-19T16:23:06.700Z,10.30
2023-02-19T16:25:40.926Z,10.30
2023-02-19T16:28:21.175Z,10.20
2023-02-19T16:30:57.270Z,10.10
2023-02-19T16:33:39.550Z,10.10
2023-02-19T16:36:35.125Z,10.10
2023-02-19T16:39:27.280Z,10.00
2023-02-19T16:42:19.696Z,9.90
2023-02-19T16:44:49.429Z,9.90
2023-02-19T16:47:29.936Z,9.80
2023-02-19T16:50:00.503Z,9.70
2023-02-19T16:52:29.554Z,9.70
2023-02-19T16:54:57.557Z,9.70
2023-02-19T16:57:25.568Z,9.60
2023-02-19T16:59:54.908Z,9.60
2023-02-19T17:02:25.330Z,9.50
2023-02-19T17:04:55.222Z,9.50
2023-02-19T17:07:23.687Z,9.40
2023-02-19T17:09:51.973Z,9.40
2023-02-19T17:12:20.248Z,9.40
2023-02-19T17:14:48.244Z,9.30
2023-02-19T17:17:17.581Z,9.30
2023-02-19T17:19:45.629Z,9.20
2023-02-19T17:22:16.985Z,9.20
2023-02-19T17:24:46.006Z,9.20
2023-02-19T17:27:14.357Z,9.20
2023-02-19T17:29:42.420Z,9.10
2023-02-19T17:32:10.564Z,9.10
2023-02-19T17:34:39.971Z,9.00
2023-02-19T17:37:07.943Z,9.00
2023-02-19T17:39:35.959Z,9.00
2023-02-19T17:42:05.321Z,8.90
2023-02-19T17:44:33.374Z,8.90
2023-02-19T17:47:01.880Z,8.90
2023-02-19T17:49:29.914Z,8.90
2023-02-19T17:51:59.623Z,8.90
2023-02-19T17:54:27.723Z,8.90
2023-02-19T17:56:55.771Z,8.80
2023-02-19T17:59:23.787Z,8.80
2023-02-19T18:01:51.770Z,8.70
2023-02-19T18:04:19.835Z,8.70
2023-02-19T18:06:48.161Z,8.70
2023-02-19T18:09:19.446Z,8.70
2023-02-19T18:11:47.667Z,8.50
2023-02-19T18:14:15.644Z,8.60
2023-02-19T18:16:49.760Z,8.60
2023-02-19T18:19:18.813Z,8.50
2023-02-19T18:21:46.826Z,8.50
2023-02-19T18:24:14.891Z,8.40
2023-02-19T18:26:44.686Z,8.50
2023-02-19T18:29:13.256Z,8.40
2023-02-19T18:31:42.676Z,8.40
2023-02-19T18:34:18.300Z,8.40
2023-02-19T18:36:46.695Z,8.40
2023-02-19T18:39:14.995Z,8.30
2023-02-19T18:41:47.805Z,8.20
2023-02-19T18:44:19.697Z,8.30
2023-02-19T18:46:47.757Z,8.20
2023-02-19T18:49:16.186Z,8.20
2023-02-19T18:51:44.465Z,8.20
2023-02-19T18:54:14.654Z,8.10
2023-02-19T18:56:45.401Z,8.10
2023-02-19T18:59:14.154Z,8.00
2023-02-19T19:01:42.578Z,8.00
2023-02-19T19:04:10.794Z,7.90
2023-02-19T19:06:38.775Z,7.90
2023-02-19T19:09:07.510Z,8.00
2023-02-19T19:11:35.697Z,8.10
2023-02-19T19:14:05.273Z,8.10
2023-02-19T19:16:33.266Z,8.10
2023-02-19T19:19:01.284Z,8.00
2023-02-19T19:21:30.657Z,7.80
2023-02-19T19:23:58.714Z,7.50
2023-02-19T19:26:26.792Z,7.70
2023-02-19T19:28:54.847Z,7.80
2023-02-19T19:31:25.474Z,7.80
2023-02-19T19:33:53.859Z,7.80
2023-02-19T19:36:23.656Z,7.80
2023-02-19T19:38:51.651Z,7.50
2023-02-19T19:41:20.700Z,7.60
2023-02-19T19:43:48.833Z,7.70
2023-02-19T19:46:19.816Z,7.70
2023-02-19T19:48:50.191Z,7.70
2023-02-19T19:51:18.605Z,7.70
2023-02-19T19:53:49.080Z,7.60
2023-02-19T19:56:17.680Z,7.60
2023-02-19T19:58:45.698Z,7.60
2023-02-19T20:01:15.062Z,7.70
2023-02-19T20:03:43.099Z,7.60
2023-02-19T20:06:12.501Z,7.60
2023-02-19T20:08:40.738Z,7.50
2023-02-19T20:11:08.897Z,7.50
2023-02-19T20:13:36.879Z,7.50
2023-02-19T20:16:06.102Z,7.50
2023-02-19T20:18:35.967Z,7.60
2023-02-19T20:21:04.480Z,7.60
2023-02-19T20:23:33.912Z,7.60
2023-02-19T20:26:05.472Z,7.50
2023-02-19T20:28:33.614Z,7.50
2023-02-19T20:31:01.792Z,7.50
2023-02-19T20:33:30.372Z,7.50
2023-02-19T20:35:58.408Z,7.50
2023-02-19T20:38:26.388Z,7.40
2023-02-19T20:40:56.504Z,7.40
2023-02-19T20:43:24.605Z,7.50
2023-02-19T20:45:52.715Z,7.50
2023-02-19T20:48:20.845Z,7.30
2023-02-19T20:50:48.823Z,7.40
2023-02-19T20:53:16.935Z,7.40
2023-02-19T20:55:44.978Z,7.50
2023-02-19T20:58:14.569Z,7.40
2023-02-19T21:00:42.608Z,7.40
2023-02-19T21:03:11.767Z,7.40
2023-02-19T21:05:39.886Z,7.20
2023-02-19T21:08:07.942Z,7.10
2023-02-19T21:10:35.993Z,7.10
2023-02-19T21:13:03.964Z,7.10
2023-02-19T21:15:34.339Z,7.20
2023-02-19T21:18:04.920Z,7.10
2023-02-19T21:20:33.022Z,7.10
2023-02-19T21:23:01.218Z,7.20
2023-02-19T21:25:31.478Z,7.20
2023-02-19T21:27:59.610Z,7.20
2023-02-19T21:30:27.613Z,7.20
2023-02-19T21:32:57.273Z,7.20
2023-02-19T21:35:25.254Z,7.10
2023-02-19T21:37:53.286Z,7.10
2023-02-19T21:40:23.370Z,6.90
2023-02-19T21:42:51.669Z,6.60
2023-02-19T21:45:19.692Z,6.40
2023-02-19T21:47:47.711Z,6.50
2023-02-19T21:50:17.243Z,6.70
2023-02-19T21:52:45.233Z,6.70
2023-02-19T21:55:13.401Z,6.60
2023-02-19T21:57:41.505Z,6.70
2023-02-19T22:00:10.307Z,6.70
2023-02-19T22:02:38.433Z,6.70
2023-02-19T22:05:07.171Z,6.80
2023-02-19T22:07:36.559Z,6.90
2023-02-19T22:10:05.225Z,6.90
2023-02-19T22:12:33.346Z,7.00
2023-02-19T22:15:01.499Z,7.00
2023-02-19T22:17:29.472Z,7.00
2023-02-19T22:19:57.425Z,7.00
2023-02-19T22:22:26.793Z,6.90
2023-02-19T22:24:56.314Z,6.50
2023-02-19T22:27:25.642Z,6.50
2023-02-19T22:29:53.598Z,6.70
2023-02-19T22:32:21.668Z,6.70
2023-02-19T22:34:49.724Z,6.70
2023-02-19T22:37:17.782Z,6.80
2023-02-19T22:39:46.145Z,6.80
2023-02-19T22:42:15.498Z,6.80
2023-02-19T22:44:44.007Z,6.80
2023-02-19T22:47:11.977Z,6.80
2023-02-19T22:49:41.713Z,6.80
2023-02-19T22:52:11.571Z,6.90
2023-02-19T22:54:40.318Z,6.90
2023-02-19T22:57:08.266Z,6.80
2023-02-19T22:59:37.600Z,6.80
2023-02-19T23:02:05.847Z,6.80
2023-02-19T23:04:33.868Z,6.80
2023-02-19T23:07:01.889Z,6.70
2023-02-19T23:09:30.621Z,6.40
2023-02-19T23:12:03.081Z,6.60
2023-02-19T23:14:33.247Z,6.60
2023-02-19T23:17:03.137Z,6.60
2023-02-19T23:19:31.377Z,6.60
2023-02-19T23:21:59.612Z,6.70
2023-02-19T23:24:27.666Z,6.70
2023-02-19T23:26:55.753Z,6.70
2023-02-19T23:29:26.396Z,6.80
2023-02-19T23:31:55.242Z,6.70
2023-02-19T23:34:25.335Z,6.70
2023-02-19T23:36:53.618Z,6.60
2023-02-19T23:39:23.100Z,6.60
2023-02-19T23:41:52.755Z,6.60
2023-02-19T23:44:22.226Z,6.60
2023-02-19T23:46:50.886Z,6.60
2023-02-19T23:49:19.316Z,6.60
2023-02-19T23:51:48.802Z,6.60
2023-02-19T23:54:17.089Z,6.60
2023-02-19T23:56:45.068Z,6.50
2023-02-19T23:59:13.361Z,6.40
